createdAt,value
2017-09-21T00:01:18.386Z,56.81
2017-09-21T00:03:45.030Z,56.79
2017-09-21T00:06:12.148Z,56.80
2017-09-21T00:08:39.038Z,56.78
2017-09-21T00:11:05.643Z,56.81
2017-09-21T00:13:33.031Z,56.80
2017-09-21T00:15:59.978Z,56.81
2017-09-21T00:18:26.974Z,56.80
2017-09-21T00:20:54.347Z,56.80
2017-09-21T00:23:21.702Z,56.79
2017-09-21T00:25:49.069Z,56.80
2017-09-21T00:28:16.340Z,56.75
2017-09-21T00:30:42.938Z,56.79
2017-09-21T00:33:10.303Z,56.79
2017-09-21T00:35:38.143Z,56.77
2017-09-21T00:38:04.754Z,56.79
2017-09-21T00:40:31.374Z,56.79
2017-09-21T00:42:58.463Z,56.78
2017-09-21T00:45:25.178Z,56.79
2017-09-21T00:47:52.122Z,56.78
2017-09-21T00:50:18.764Z,56.77
2017-09-21T00:52:45.389Z,56.78
2017-09-21T00:55:12.515Z,56.79
2017-09-21T00:57:39.478Z,56.79
2017-09-21T01:00:06.125Z,56.78
2017-09-21T01:02:33.158Z,56.76
2017-09-21T01:04:59.781Z,56.78
2017-09-21T01:07:26.791Z,56.76
2017-09-21T01:09:54.166Z,56.77
2017-09-21T01:12:21.859Z,56.75
2017-09-21T01:14:48.511Z,56.75
2017-09-21T01:17:15.747Z,56.76
2017-09-21T01:19:42.370Z,56.76
2017-09-21T01:22:09.008Z,56.76
2017-09-21T01:24:35.956Z,56.74
2017-09-21T01:27:02.587Z,56.74
2017-09-21T01:29:29.214Z,56.75
2017-09-21T01:31:57.160Z,56.77
2017-09-21T01:34:24.596Z,56.77
2017-09-21T01:36:51.251Z,56.74
2017-09-21T01:39:18.647Z,56.74
2017-09-21T01:41:45.505Z,56.75
2017-09-21T01:44:12.641Z,56.74
2017-09-21T01:46:39.302Z,56.74
2017-09-21T01:49:06.238Z,56.75
2017-09-21T01:51:33.327Z,56.74
2017-09-21T01:54:00.030Z,56.73
2017-09-21T01:56:26.676Z,56.73
2017-09-21T01:58:53.749Z,56.74
2017-09-21T02:01:20.373Z,56.74
2017-09-21T02:03:47.019Z,56.73
2017-09-21T02:06:13.979Z,56.74
2017-09-21T02:08:41.352Z,56.73
2017-09-21T02:11:08.734Z,56.73
2017-09-21T02:13:35.736Z,56.71
2017-09-21T02:16:02.736Z,56.72
2017-09-21T02:18:29.361Z,56.70
2017-09-21T02:20:56.260Z,56.72
2017-09-21T02:23:23.158Z,56.70
2017-09-21T02:25:49.920Z,56.72
2017-09-21T02:28:16.992Z,56.72
2017-09-21T02:30:45.106Z,56.71
2017-09-21T02:33:11.722Z,56.68
2017-09-21T02:35:39.565Z,56.70
2017-09-21T02:38:06.167Z,56.69
2017-09-21T02:40:32.782Z,56.70
2017-09-21T02:43:00.055Z,56.69
2017-09-21T02:45:26.647Z,56.71
2017-09-21T02:47:54.023Z,56.69
2017-09-21T02:50:21.136Z,56.68
2017-09-21T02:52:49.255Z,56.70
2017-09-21T02:55:16.213Z,56.68
2017-09-21T02:57:43.199Z,56.69
2017-09-21T03:00:10.702Z,56.67
2017-09-21T03:02:37.321Z,56.67
2017-09-21T03:05:04.730Z,56.69
2017-09-21T03:07:31.366Z,56.66
2017-09-21T03:09:58.698Z,56.66
2017-09-21T03:12:25.310Z,56.65
2017-09-21T03:14:52.684Z,56.66
2017-09-21T03:17:19.787Z,56.65
2017-09-21T03:19:47.894Z,56.64
2017-09-21T03:22:14.513Z,56.66
2017-09-21T03:24:42.259Z,56.66
2017-09-21T03:27:09.631Z,56.65
2017-09-21T03:29:36.991Z,56.63
2017-09-21T03:32:04.731Z,56.65
2017-09-21T03:34:32.091Z,56.64
2017-09-21T03:36:59.461Z,56.64
2017-09-21T03:39:26.870Z,56.63
2017-09-21T03:41:53.479Z,56.65
2017-09-21T03:44:20.477Z,56.64
2017-09-21T03:46:47.583Z,56.65
2017-09-21T03:49:14.242Z,56.63
2017-09-21T03:51:41.103Z,56.65
2017-09-21T03:54:07.738Z,56.65
2017-09-21T03:56:36.080Z,56.65
2017-09-21T03:59:03.072Z,56.64
2017-09-21T04:01:31.164Z,56.64
2017-09-21T04:03:58.511Z,56.63
2017-09-21T04:06:26.369Z,56.63
2017-09-21T04:08:53.260Z,56.60
2017-09-21T04:11:19.893Z,56.64
2017-09-21T04:13:46.600Z,56.60
2017-09-21T04:16:14.975Z,56.61
2017-09-21T04:18:42.371Z,56.64
2017-09-21T04:21:09.031Z,56.63
2017-09-21T04:23:36.061Z,56.63
2017-09-21T04:26:03.002Z,56.62
2017-09-21T04:28:29.904Z,56.63
2017-09-21T04:30:57.589Z,56.61
2017-09-21T04:33:24.275Z,56.62
2017-09-21T04:35:50.902Z,56.61
2017-09-21T04:38:18.016Z,56.63
2017-09-21T04:40:44.690Z,56.60
2017-09-21T04:43:11.322Z,56.61
2017-09-21T04:45:38.411Z,56.62
2017-09-21T04:48:12.722Z,56.59
2017-09-21T04:50:40.590Z,56.59
2017-09-21T04:53:08.703Z,56.60
2017-09-21T04:55:35.327Z,56.59
2017-09-21T04:58:03.155Z,56.60
2017-09-21T05:00:29.788Z,56.60
2017-09-21T05:02:56.718Z,56.59
2017-09-21T05:05:24.050Z,56.58
2017-09-21T05:07:50.999Z,56.59
2017-09-21T05:10:17.943Z,56.57
2017-09-21T05:12:45.048Z,56.56
2017-09-21T05:15:12.412Z,56.59
2017-09-21T05:17:39.767Z,56.58
2017-09-21T05:20:07.503Z,56.57
2017-09-21T05:22:34.124Z,56.54
2017-09-21T05:25:00.739Z,56.57
2017-09-21T05:27:27.394Z,56.54
2017-09-21T05:29:54.004Z,56.55
2017-09-21T05:32:21.369Z,56.53
2017-09-21T05:34:48.034Z,56.54
2017-09-21T05:37:14.766Z,56.54
2017-09-21T05:39:41.898Z,56.55
2017-09-21T05:42:08.507Z,56.54
2017-09-21T05:44:35.865Z,56.54
2017-09-21T05:47:03.124Z,56.52
2017-09-21T05:49:29.736Z,56.50
2017-09-21T05:51:57.115Z,56.54
2017-09-21T05:54:24.132Z,56.54
2017-09-21T05:56:51.492Z,57.13
2017-09-21T05:59:18.851Z,57.98
2017-09-21T06:01:46.600Z,58.17
2017-09-21T06:04:14.476Z,58.04
2017-09-21T06:06:42.317Z,58.20
2017-09-21T06:09:09.453Z,58.22
2017-09-21T06:11:36.070Z,58.11
2017-09-21T06:14:02.728Z,57.95
2017-09-21T06:16:29.401Z,57.76
2017-09-21T06:18:56.751Z,57.60
2017-09-21T06:21:23.731Z,57.42
2017-09-21T06:23:50.697Z,57.15
2017-09-21T06:26:17.354Z,57.07
2017-09-21T06:28:44.585Z,57.44
2017-09-21T06:31:11.182Z,57.36
2017-09-21T06:33:38.556Z,57.33
2017-09-21T06:36:05.840Z,57.30
2017-09-21T06:38:32.470Z,57.16
2017-09-21T06:40:59.122Z,57.04
2017-09-21T06:43:26.377Z,56.95
2017-09-21T06:45:52.992Z,56.78
2017-09-21T06:48:20.526Z,56.91
2017-09-21T06:50:48.667Z,56.98
2017-09-21T06:53:15.305Z,56.96
2017-09-21T06:55:42.023Z,56.82
2017-09-21T06:58:09.076Z,56.75
2017-09-21T07:00:35.738Z,56.69
2017-09-21T07:03:02.376Z,56.65
2017-09-21T07:05:30.520Z,56.63
2017-09-21T07:07:57.151Z,56.49
2017-09-21T07:10:23.771Z,56.53
2017-09-21T07:12:50.764Z,56.49
2017-09-21T07:15:17.383Z,56.42
2017-09-21T07:17:44.017Z,56.51
2017-09-21T07:20:11.120Z,56.44
2017-09-21T07:22:38.459Z,56.62
2017-09-21T07:25:06.160Z,56.64
2017-09-21T07:27:35.932Z,56.65
2017-09-21T07:30:03.310Z,57.11
2017-09-21T07:32:29.970Z,57.79
2017-09-21T07:34:56.646Z,57.66
2017-09-21T07:37:23.692Z,57.50
2017-09-21T07:39:50.363Z,57.65
2017-09-21T07:42:17.747Z,57.07
2017-09-21T07:44:44.741Z,57.07
2017-09-21T07:47:12.461Z,57.16
2017-09-21T07:49:39.212Z,56.95
2017-09-21T07:52:06.209Z,57.21
2017-09-21T07:54:33.637Z,57.03
2017-09-21T07:57:01.047Z,56.80
2017-09-21T07:59:27.687Z,56.90
2017-09-21T08:01:54.314Z,56.86
2017-09-21T08:04:21.580Z,56.86
2017-09-21T08:06:48.190Z,56.73
2017-09-21T08:09:15.529Z,56.59
2017-09-21T08:11:43.174Z,56.70
2017-09-21T08:14:11.261Z,56.85
2017-09-21T08:16:38.636Z,56.73
2017-09-21T08:19:05.261Z,57.42
2017-09-21T08:21:33.368Z,56.93
2017-09-21T08:24:00.003Z,58.13
2017-09-21T08:26:26.732Z,58.64
2017-09-21T08:28:53.835Z,58.13
2017-09-21T08:31:21.268Z,58.20
2017-09-21T08:33:48.704Z,57.24
2017-09-21T08:36:21.947Z,58.33
2017-09-21T08:38:50.056Z,58.59
2017-09-21T08:41:16.684Z,57.50
2017-09-21T08:43:43.840Z,58.08
2017-09-21T08:46:10.460Z,57.77
2017-09-21T08:48:37.807Z,57.75
2017-09-21T08:51:05.659Z,57.23
2017-09-21T08:53:32.374Z,57.41
2017-09-21T08:55:59.010Z,57.74
2017-09-21T08:58:26.074Z,57.46
2017-09-21T09:00:52.828Z,57.28
2017-09-21T09:03:19.460Z,57.35
2017-09-21T09:05:47.610Z,57.28
2017-09-21T09:08:15.654Z,57.60
2017-09-21T09:10:42.606Z,57.78
2017-09-21T09:13:09.622Z,58.21
2017-09-21T09:15:37.232Z,59.15
2017-09-21T09:18:03.872Z,59.01
2017-09-21T09:20:30.850Z,58.30
2017-09-21T09:22:57.556Z,58.76
2017-09-21T09:25:24.557Z,58.66
2017-09-21T09:27:51.571Z,58.67
2017-09-21T09:30:18.945Z,58.55
2017-09-21T09:32:46.646Z,57.93
2017-09-21T09:35:13.751Z,57.84
2017-09-21T09:37:41.141Z,57.81
2017-09-21T09:40:08.099Z,57.91
2017-09-21T09:42:35.001Z,57.87
2017-09-21T09:45:02.480Z,58.19
2017-09-21T09:47:29.175Z,57.86
2017-09-21T09:49:56.844Z,57.80
2017-09-21T09:52:24.251Z,57.72
2017-09-21T09:54:51.014Z,57.44
2017-09-21T09:57:18.088Z,57.17
2017-09-21T09:59:45.439Z,57.17
2017-09-21T10:02:13.541Z,57.15
2017-09-21T10:04:41.266Z,57.25
2017-09-21T10:07:07.899Z,57.75
2017-09-21T10:09:34.629Z,57.55
2017-09-21T10:12:01.733Z,57.88
2017-09-21T10:14:28.498Z,57.06
2017-09-21T10:16:55.376Z,56.93
2017-09-21T10:19:22.594Z,56.91
2017-09-21T10:21:49.454Z,56.86
2017-09-21T10:24:16.063Z,56.81
2017-09-21T10:26:43.221Z,56.76
2017-09-21T10:29:09.859Z,56.69
2017-09-21T10:31:36.509Z,56.64
2017-09-21T10:34:03.500Z,56.60
2017-09-21T10:36:31.057Z,56.53
2017-09-21T10:38:57.867Z,56.47
2017-09-21T10:41:25.031Z,56.49
2017-09-21T10:43:51.658Z,56.45
2017-09-21T10:46:18.394Z,56.38
2017-09-21T10:48:45.468Z,56.33
2017-09-21T10:51:12.299Z,56.34
2017-09-21T10:53:39.209Z,56.30
2017-09-21T10:56:06.199Z,56.27
2017-09-21T10:58:32.843Z,56.24
2017-09-21T11:00:59.839Z,56.25
2017-09-21T11:03:26.927Z,56.23
2017-09-21T11:05:54.550Z,56.24
2017-09-21T11:08:22.229Z,56.27
2017-09-21T11:10:49.340Z,56.30
2017-09-21T11:13:15.968Z,56.34
2017-09-21T11:15:44.240Z,56.43
2017-09-21T11:18:11.980Z,58.63
2017-09-21T11:20:39.336Z,57.43
2017-09-21T11:23:05.946Z,57.38
2017-09-21T11:25:33.228Z,57.60
2017-09-21T11:27:59.848Z,57.63
2017-09-21T11:30:26.766Z,57.64
2017-09-21T11:32:53.867Z,57.64
2017-09-21T11:35:21.282Z,57.53
2017-09-21T11:37:47.889Z,57.46
2017-09-21T11:40:14.791Z,57.82
2017-09-21T11:42:42.878Z,58.05
2017-09-21T11:45:10.243Z,58.52
2017-09-21T11:47:37.978Z,58.53
2017-09-21T11:50:05.600Z,58.64
2017-09-21T11:52:32.362Z,58.65
2017-09-21T11:54:59.383Z,58.65
2017-09-21T11:57:27.126Z,58.45
2017-09-21T11:59:54.536Z,58.44
2017-09-21T12:02:21.169Z,58.71
2017-09-21T12:04:48.226Z,58.75
2017-09-21T12:07:14.852Z,58.86
2017-09-21T12:09:41.503Z,58.81
2017-09-21T12:12:08.617Z,58.67
2017-09-21T12:14:35.254Z,58.49
2017-09-21T12:17:01.871Z,58.53
2017-09-21T12:19:28.956Z,58.47
2017-09-21T12:21:55.567Z,58.39
2017-09-21T12:24:22.524Z,58.47
2017-09-21T12:26:49.507Z,58.42
2017-09-21T12:29:16.864Z,58.48
2017-09-21T12:31:43.480Z,58.46
2017-09-21T12:34:10.446Z,58.78
2017-09-21T12:36:38.558Z,58.76
2017-09-21T12:39:05.232Z,58.62
2017-09-21T12:41:32.238Z,58.77
2017-09-21T12:43:58.851Z,58.94
2017-09-21T12:46:25.740Z,58.89
2017-09-21T12:48:52.809Z,58.85
2017-09-21T12:51:19.448Z,58.79
2017-09-21T12:53:46.134Z,58.71
2017-09-21T12:56:14.138Z,58.64
2017-09-21T12:58:40.759Z,58.67
2017-09-21T13:01:07.355Z,58.64
2017-09-21T13:03:34.000Z,58.47
2017-09-21T13:06:01.095Z,58.46
2017-09-21T13:08:27.982Z,58.43
2017-09-21T13:10:54.609Z,58.40
2017-09-21T13:13:21.237Z,58.44
2017-09-21T13:15:48.198Z,58.49
2017-09-21T13:18:14.816Z,58.41
2017-09-21T13:20:41.740Z,58.51
2017-09-21T13:23:08.827Z,58.45
2017-09-21T13:25:35.443Z,58.42
2017-09-21T13:28:02.064Z,58.44
2017-09-21T13:30:29.607Z,58.55
2017-09-21T13:32:56.453Z,58.59
2017-09-21T13:35:23.067Z,58.61
2017-09-21T13:37:50.709Z,58.40
2017-09-21T13:40:18.825Z,58.79
2017-09-21T13:42:45.692Z,58.83
2017-09-21T13:45:12.867Z,58.98
2017-09-21T13:47:39.873Z,58.98
2017-09-21T13:50:12.700Z,59.01
2017-09-21T13:52:39.623Z,59.02
2017-09-21T13:55:06.753Z,59.09
2017-09-21T13:57:33.384Z,59.05
2017-09-21T14:00:00.012Z,58.60
2017-09-21T14:02:27.120Z,58.40
2017-09-21T14:04:53.735Z,58.69
2017-09-21T14:07:20.398Z,58.68
2017-09-21T14:09:48.178Z,58.97
2017-09-21T14:12:15.809Z,59.13
2017-09-21T14:14:42.719Z,59.18
2017-09-21T14:17:10.579Z,59.08
2017-09-21T14:19:37.194Z,59.29
2017-09-21T14:22:04.550Z,59.37
2017-09-21T14:24:33.494Z,59.39
2017-09-21T14:27:00.104Z,59.43
2017-09-21T14:29:26.763Z,59.47
2017-09-21T14:31:53.631Z,59.43
2017-09-21T14:34:21.214Z,59.53
2017-09-21T14:36:48.571Z,59.62
2017-09-21T14:39:16.775Z,59.53
2017-09-21T14:41:43.375Z,59.54
2017-09-21T14:44:10.747Z,59.50
2017-09-21T14:46:37.874Z,59.48
2017-09-21T14:49:05.262Z,59.53
2017-09-21T14:51:31.875Z,59.45
2017-09-21T14:53:59.693Z,59.37
2017-09-21T14:56:26.551Z,59.25
2017-09-21T14:58:53.175Z,59.26
2017-09-21T15:01:20.034Z,59.18
2017-09-21T15:03:46.627Z,59.16
2017-09-21T15:06:13.248Z,59.15
2017-09-21T15:08:41.345Z,59.13
2017-09-21T15:11:07.971Z,59.17
2017-09-21T15:13:34.603Z,59.01
2017-09-21T15:16:01.871Z,58.93
2017-09-21T15:18:28.507Z,58.99
2017-09-21T15:20:55.129Z,59.00
2017-09-21T15:23:22.211Z,58.92
2017-09-21T15:25:48.836Z,59.26
2017-09-21T15:28:15.978Z,59.31
2017-09-21T15:30:42.926Z,59.35
2017-09-21T15:33:09.560Z,59.40
2017-09-21T15:35:36.651Z,59.36
2017-09-21T15:38:03.514Z,59.35
2017-09-21T15:40:30.930Z,59.44
2017-09-21T15:42:57.755Z,59.70
2017-09-21T15:45:24.395Z,59.62
2017-09-21T15:47:51.012Z,59.72
2017-09-21T15:50:17.975Z,59.74
2017-09-21T15:52:44.601Z,59.85
2017-09-21T15:55:11.251Z,59.81
2017-09-21T15:57:38.338Z,59.84
2017-09-21T16:00:04.952Z,59.90
2017-09-21T16:02:31.615Z,60.03
2017-09-21T16:04:58.976Z,60.07
2017-09-21T16:07:25.591Z,60.16
2017-09-21T16:09:52.296Z,60.25
2017-09-21T16:12:19.305Z,60.35
2017-09-21T16:14:46.911Z,60.44
2017-09-21T16:17:13.531Z,60.25
2017-09-21T16:19:40.680Z,60.36
2017-09-21T16:22:07.642Z,60.32
2017-09-21T16:24:34.560Z,60.45
2017-09-21T16:27:02.702Z,60.59
2017-09-21T16:29:29.319Z,59.87
2017-09-21T16:31:55.946Z,60.64
2017-09-21T16:34:22.601Z,60.80
2017-09-21T16:36:49.276Z,60.85
2017-09-21T16:39:17.196Z,60.33
2017-09-21T16:41:43.865Z,59.43
2017-09-21T16:44:10.514Z,59.38
2017-09-21T16:46:38.364Z,60.51
2017-09-21T16:49:05.032Z,60.63
2017-09-21T16:51:32.408Z,60.84
2017-09-21T16:53:59.304Z,60.68
2017-09-21T16:56:26.701Z,61.04
2017-09-21T16:58:53.391Z,61.24
2017-09-21T17:01:20.489Z,61.03
2017-09-21T17:03:47.211Z,61.03
2017-09-21T17:06:14.903Z,61.05
2017-09-21T17:08:41.891Z,60.91
2017-09-21T17:11:09.247Z,61.38
2017-09-21T17:13:37.348Z,61.49
2017-09-21T17:16:05.076Z,60.51
2017-09-21T17:18:31.897Z,60.22
2017-09-21T17:20:59.218Z,60.21
2017-09-21T17:23:26.911Z,60.26
2017-09-21T17:28:26.883Z,62.33
2017-09-21T17:30:53.514Z,62.49
2017-09-21T17:33:20.409Z,62.49
2017-09-21T17:35:47.602Z,62.05
2017-09-21T17:38:14.249Z,62.03
2017-09-21T17:40:41.265Z,61.86
2017-09-21T17:43:08.599Z,61.73
2017-09-21T17:45:35.240Z,61.69
2017-09-21T17:48:01.876Z,61.56
2017-09-21T17:50:28.862Z,61.49
2017-09-21T17:52:55.762Z,61.48
2017-09-21T17:55:22.397Z,61.28
2017-09-21T17:57:49.498Z,61.38
2017-09-21T18:00:16.165Z,61.40
2017-09-21T18:02:43.540Z,61.27
2017-09-21T18:05:10.518Z,61.33
2017-09-21T18:07:37.152Z,61.45
2017-09-21T18:10:03.765Z,61.47
2017-09-21T18:12:31.632Z,61.20
2017-09-21T18:14:58.579Z,61.33
2017-09-21T18:17:25.215Z,61.36
2017-09-21T18:19:52.177Z,61.40
2017-09-21T18:22:18.795Z,61.32
2017-09-21T18:24:45.414Z,61.37
2017-09-21T18:27:12.055Z,61.53
2017-09-21T18:29:38.791Z,61.68
2017-09-21T18:32:07.019Z,61.77
2017-09-21T18:34:33.637Z,62.36
2017-09-21T18:37:00.308Z,61.03
2017-09-21T18:39:26.938Z,60.03
2017-09-21T18:41:53.842Z,60.15
2017-09-21T18:44:21.238Z,60.03
2017-09-21T18:46:48.244Z,60.04
2017-09-21T18:49:14.911Z,59.94
2017-09-21T18:51:41.973Z,59.88
2017-09-21T18:54:08.615Z,59.92
2017-09-21T18:56:36.726Z,59.87
2017-09-21T18:59:03.729Z,59.77
2017-09-21T19:01:30.376Z,59.69
2017-09-21T19:03:57.938Z,59.68
2017-09-21T19:06:24.643Z,59.67
2017-09-21T19:08:51.264Z,59.61
2017-09-21T19:11:17.926Z,59.53
2017-09-21T19:13:44.534Z,59.46
2017-09-21T19:16:11.642Z,59.47
2017-09-21T19:18:39.001Z,59.45
2017-09-21T19:21:06.377Z,59.43
2017-09-21T19:23:33.404Z,59.35
2017-09-21T19:26:00.750Z,59.40
2017-09-21T19:28:27.424Z,59.34
2017-09-21T19:30:54.488Z,59.34
2017-09-21T19:33:21.126Z,59.30
2017-09-21T19:35:47.748Z,59.27
2017-09-21T19:38:14.747Z,59.23
2017-09-21T19:40:42.097Z,59.18
2017-09-21T19:43:08.853Z,59.19
2017-09-21T19:45:35.864Z,59.18
2017-09-21T19:48:02.788Z,59.24
2017-09-21T19:50:29.409Z,59.14
2017-09-21T19:52:56.515Z,59.20
2017-09-21T19:55:23.421Z,59.13
2017-09-21T19:57:50.035Z,59.14
2017-09-21T20:00:17.766Z,59.10
2017-09-21T20:02:45.328Z,59.10
2017-09-21T20:05:12.695Z,59.05
2017-09-21T20:07:39.868Z,59.04
2017-09-21T20:10:06.483Z,59.00
2017-09-21T20:12:33.107Z,59.02
2017-09-21T20:15:00.972Z,59.01
2017-09-21T20:17:28.326Z,59.07
2017-09-21T20:19:56.758Z,58.97
2017-09-21T20:22:24.215Z,59.00
2017-09-21T20:24:50.973Z,58.94
2017-09-21T20:27:17.597Z,58.98
2017-09-21T20:29:44.484Z,58.94
2017-09-21T20:32:11.378Z,58.92
2017-09-21T20:34:37.983Z,58.89
2017-09-21T20:37:05.727Z,58.90
2017-09-21T20:39:33.342Z,58.90
2017-09-21T20:42:00.099Z,58.93
2017-09-21T20:44:27.075Z,58.87
2017-09-21T20:46:55.204Z,58.87
2017-09-21T20:49:21.837Z,58.85
2017-09-21T20:51:48.930Z,58.82
2017-09-21T20:54:15.563Z,58.81
2017-09-21T20:56:42.241Z,58.87
2017-09-21T20:59:09.515Z,58.83
2017-09-21T21:01:36.375Z,58.83
2017-09-21T21:04:03.292Z,58.82
2017-09-21T21:06:30.758Z,58.84
2017-09-21T21:08:57.367Z,58.79
2017-09-21T21:11:25.060Z,58.80
2017-09-21T21:13:51.697Z,58.79
2017-09-21T21:16:18.684Z,58.80
2017-09-21T21:18:46.044Z,58.77
2017-09-21T21:21:13.658Z,58.78
2017-09-21T21:23:40.683Z,58.76
2017-09-21T21:26:08.044Z,58.75
2017-09-21T21:28:34.646Z,58.76
2017-09-21T21:31:03.217Z,58.75
2017-09-21T21:33:30.123Z,58.71
2017-09-21T21:35:56.790Z,58.72
2017-09-21T21:38:23.815Z,58.72
2017-09-21T21:40:50.475Z,58.71
2017-09-21T21:43:17.108Z,58.70
2017-09-21T21:45:43.931Z,58.68
2017-09-21T21:48:10.669Z,58.67
2017-09-21T21:50:37.275Z,58.67
2017-09-21T21:53:04.924Z,58.67
2017-09-21T21:55:31.550Z,58.62
2017-09-21T21:57:58.892Z,58.64
2017-09-21T22:00:26.046Z,58.63
2017-09-21T22:02:52.908Z,58.61
2017-09-21T22:05:19.555Z,58.62
2017-09-21T22:07:47.296Z,58.62
2017-09-21T22:10:15.837Z,58.59
2017-09-21T22:12:42.462Z,58.60
2017-09-21T22:15:09.666Z,58.58
2017-09-21T22:17:37.023Z,58.58
2017-09-21T22:20:04.670Z,58.55
2017-09-21T22:22:31.321Z,58.54
2017-09-21T22:24:59.424Z,58.55
2017-09-21T22:27:26.803Z,58.56
2017-09-21T22:29:53.417Z,58.53
2017-09-21T22:32:21.916Z,58.55
2017-09-21T22:34:48.531Z,58.52
2017-09-21T22:37:15.914Z,58.54
2017-09-21T22:39:42.558Z,58.47
2017-09-21T22:42:09.496Z,58.50
2017-09-21T22:44:36.591Z,58.54
2017-09-21T22:47:04.131Z,58.48
2017-09-21T22:49:30.918Z,58.47
2017-09-21T22:51:58.651Z,58.47
2017-09-21T22:54:25.255Z,58.45
2017-09-21T22:56:51.871Z,58.48
2017-09-21T22:59:18.767Z,58.49
2017-09-21T23:01:45.383Z,58.44
2017-09-21T23:04:12.017Z,58.45
2017-09-21T23:06:40.176Z,58.44
2017-09-21T23:09:07.735Z,58.44
2017-09-21T23:11:34.367Z,58.42
2017-09-21T23:14:01.258Z,58.44
2017-09-21T23:16:27.992Z,58.44
2017-09-21T23:18:54.615Z,58.42
2017-09-21T23:21:21.674Z,58.41
2017-09-21T23:23:48.287Z,58.41
2017-09-21T23:26:14.898Z,58.38
2017-09-21T23:28:42.270Z,58.40
2017-09-21T23:31:08.889Z,58.42
2017-09-21T23:33:35.521Z,58.38
2017-09-21T23:36:04.024Z,58.39
2017-09-21T23:38:30.626Z,58.39
2017-09-21T23:40:57.954Z,58.39
2017-09-21T23:43:25.007Z,58.37
2017-09-21T23:45:51.622Z,58.37
2017-09-21T23:48:18.256Z,58.38
2017-09-21T23:50:45.626Z,58.39
2017-09-21T23:53:12.434Z,58.38
2017-09-21T23:55:39.073Z,58.37
2017-09-21T23:58:06.187Z,58.37
